Time;durP1;ratioP1;P1;durP2;ratioP2;P2;SDS_P1;SDS_P2;PMS_P1;PMS_P2;Temp;Humidity;BMP_temperature;BMP_pressure;BME280_temperature;BME280_humidity;BME280_pressure;Samples;Min_cycle;Max_cycle;Signal;HPM_P1;HPM_P2
2022/02/12 00:01:43;;;;;;;;;;;4.60;99.90;;;;;;4193600;28;19908;-71
2022/02/12 00:03:43;;;;;;;;;;;4.60;99.90;;;;;;4195320;28;19909;-71
2022/02/12 00:05:44;;;;;;;;;;;4.60;99.90;;;;;;4193982;28;19924;-71
2022/02/12 00:07:45;;;;;;;;;;;4.60;99.90;;;;;;4193179;28;19909;-71
2022/02/12 00:09:45;;;;;;;;;;;4.60;99.90;;;;;;4191310;28;19913;-71
2022/02/12 00:11:46;;;;;;;;;;;4.50;99.90;;;;;;4193716;28;19935;-71
2022/02/12 00:13:46;;;;;;;;;;;4.50;99.90;;;;;;4195256;28;19917;-71
2022/02/12 00:15:47;;;;;;;;;;;4.50;99.90;;;;;;4194942;28;19939;-71
2022/02/12 00:17:47;;;;;;;;;;;4.40;99.90;;;;;;4195763;28;19999;-71
2022/02/12 00:19:48;;;;;;;;;;;4.50;99.90;;;;;;4191596;28;19912;-71
2022/02/12 00:21:49;;;;;;;;;;;4.50;99.90;;;;;;4195732;28;19912;-70
2022/02/12 00:23:49;;;;;;;;;;;4.50;99.90;;;;;;4193672;28;19915;-71
2022/02/12 00:25:51;;;;;;;;;;;4.40;99.90;;;;;;4192067;28;19912;-71
2022/02/12 00:27:52;;;;;;;;;;;4.50;99.90;;;;;;4195699;28;20109;-71
2022/02/12 00:29:52;;;;;;;;;;;4.40;99.90;;;;;;4195610;28;19923;-71
2022/02/12 00:31:53;;;;;;;;;;;4.40;99.90;;;;;;4195016;28;19912;-71
2022/02/12 00:33:53;;;;;;;;;;;4.40;99.90;;;;;;4191226;28;19919;-71
2022/02/12 00:35:54;;;;;;;;;;;4.40;99.90;;;;;;4192663;28;19909;-71
2022/02/12 00:37:54;;;;;;;;;;;4.40;99.90;;;;;;4195608;28;19916;-71
2022/02/12 00:39:55;;;;;;;;;;;4.40;99.90;;;;;;4193387;28;19961;-71
2022/02/12 00:41:56;;;;;;;;;;;4.40;99.90;;;;;;4193626;28;19955;-71
2022/02/12 00:43:56;;;;;;;;;;;4.40;99.90;;;;;;4194036;28;20289;-71
2022/02/12 00:45:57;;;;;;;;;;;4.40;99.90;;;;;;4194955;28;20389;-71
2022/02/12 00:47:57;;;;;;;;;;;4.40;99.90;;;;;;4193698;28;19912;-71
2022/02/12 00:49:58;;;;;;;;;;;4.40;99.90;;;;;;4192867;28;19915;-71
2022/02/12 00:51:58;;;;;;;;;;;4.40;99.90;;;;;;4192276;28;19973;-71
2022/02/12 00:53:59;;;;;;;;;;;4.40;99.90;;;;;;4194655;28;20000;-71
2022/02/12 00:56:00;;;;;;;;;;;4.40;99.90;;;;;;4192436;28;19917;-71
2022/02/12 00:58:00;;;;;;;;;;;4.40;99.90;;;;;;4193583;28;19967;-71
2022/02/12 01:00:01;;;;;;;;;;;4.40;99.90;;;;;;4195215;28;19917;-71
2022/02/12 01:02:02;;;;;;;;;;;4.40;99.90;;;;;;4192178;28;19956;-71
2022/02/12 01:04:03;;;;;;;;;;;4.40;99.90;;;;;;4194426;28;19961;-71
2022/02/12 01:06:04;;;;;;;;;;;4.40;99.90;;;;;;4194783;28;19916;-71
2022/02/12 01:08:05;;;;;;;;;;;4.40;99.90;;;;;;4192507;28;19956;-71
2022/02/12 01:10:07;;;;;;;;;;;4.40;99.90;;;;;;4193183;28;19921;-70
2022/02/12 01:12:07;;;;;;;;;;;4.40;99.90;;;;;;4193735;28;19908;-71
2022/02/12 01:14:10;;;;;;;;;;;4.40;99.90;;;;;;4223494;28;19915;-71
2022/02/12 01:16:10;;;;;;;;;;;4.40;99.90;;;;;;4226241;28;19907;-70
2022/02/12 01:18:11;;;;;;;;;;;4.40;99.90;;;;;;4194430;28;19996;-71
2022/02/12 01:20:11;;;;;;;;;;;4.40;99.90;;;;;;4193903;28;19912;-71
2022/02/12 01:22:12;;;;;;;;;;;4.40;99.90;;;;;;4193248;28;19912;-71
2022/02/12 01:24:12;;;;;;;;;;;4.40;99.90;;;;;;4192421;28;19908;-70
2022/02/12 01:26:13;;;;;;;;;;;4.40;99.90;;;;;;4193085;28;19920;-70
2022/02/12 01:28:13;;;;;;;;;;;4.40;99.90;;;;;;4195728;28;20320;-70
2022/02/12 01:30:14;;;;;;;;;;;4.30;99.90;;;;;;4194300;28;19974;-70
2022/02/12 01:32:14;;;;;;;;;;;4.30;99.90;;;;;;4194989;28;20164;-71
2022/02/12 01:34:15;;;;;;;;;;;4.30;99.90;;;;;;4194711;28;20022;-70
2022/02/12 01:36:16;;;;;;;;;;;4.30;99.90;;;;;;4192642;28;19924;-71
2022/02/12 01:38:17;;;;;;;;;;;4.30;99.90;;;;;;4195103;28;19935;-71
2022/02/12 01:40:21;;;;;;;;;;;4.30;99.90;;;;;;4194292;28;19916;-70
2022/02/12 01:42:22;;;;;;;;;;;4.30;99.90;;;;;;4194178;28;24611;-71
2022/02/12 01:44:30;;;;;;;;;;;4.30;99.90;;;;;;4195308;28;19916;-70
2022/02/12 01:46:30;;;;;;;;;;;4.30;99.90;;;;;;4193875;28;20003;-70
2022/02/12 01:48:31;;;;;;;;;;;4.20;99.90;;;;;;4195466;28;19909;-70
2022/02/12 01:50:31;;;;;;;;;;;4.20;99.90;;;;;;4192436;28;19914;-70
2022/02/12 01:52:32;;;;;;;;;;;4.20;99.90;;;;;;4193268;28;19966;-70
2022/02/12 01:54:33;;;;;;;;;;;4.10;99.90;;;;;;4194406;28;20361;-71
2022/02/12 01:56:33;;;;;;;;;;;4.10;99.90;;;;;;4193950;28;19957;-71
2022/02/12 01:58:34;;;;;;;;;;;4.10;99.90;;;;;;4194565;28;19909;-71
2022/02/12 02:00:35;;;;;;;;;;;4.10;99.90;;;;;;4192435;28;19908;-70
2022/02/12 02:02:38;;;;;;;;;;;4.10;99.90;;;;;;4190340;28;20333;-70
2022/02/12 02:04:39;;;;;;;;;;;4.00;99.90;;;;;;4191191;28;19909;-70
2022/02/12 02:06:42;;;;;;;;;;;4.00;99.90;;;;;;4191324;28;19924;-71
2022/02/12 02:08:42;;;;;;;;;;;4.00;99.90;;;;;;4192061;28;19915;-71
2022/02/12 02:10:43;;;;;;;;;;;4.10;99.90;;;;;;4191469;28;19908;-70
2022/02/12 02:12:43;;;;;;;;;;;4.00;99.90;;;;;;4193701;28;19909;-70
2022/02/12 02:14:44;;;;;;;;;;;4.00;99.90;;;;;;4189506;28;20292;-70
2022/02/12 02:16:45;;;;;;;;;;;4.00;99.90;;;;;;4193848;28;19912;-70
2022/02/12 02:18:45;;;;;;;;;;;4.00;99.90;;;;;;4191835;28;20387;-70
2022/02/12 02:20:46;;;;;;;;;;;3.90;99.90;;;;;;4193134;28;19932;-70
2022/02/12 02:22:50;;;;;;;;;;;3.90;99.90;;;;;;4193787;28;19908;-70
2022/02/12 02:24:50;;;;;;;;;;;3.80;99.90;;;;;;4192883;28;19965;-70
2022/02/12 02:26:51;;;;;;;;;;;3.80;99.90;;;;;;4193743;28;20011;-70
2022/02/12 02:28:51;;;;;;;;;;;3.80;99.90;;;;;;4193651;28;19908;-70
2022/02/12 02:30:52;;;;;;;;;;;3.70;99.90;;;;;;4192730;28;19916;-70
2022/02/12 02:32:53;;;;;;;;;;;3.70;99.90;;;;;;4190635;28;19916;-70
2022/02/12 02:34:54;;;;;;;;;;;3.70;99.90;;;;;;4190771;28;19909;-70
2022/02/12 02:36:55;;;;;;;;;;;3.70;99.90;;;;;;4190529;28;19908;-70
2022/02/12 02:38:55;;;;;;;;;;;3.70;99.90;;;;;;4188736;28;19909;-70
2022/02/12 02:40:56;;;;;;;;;;;3.60;99.90;;;;;;4192084;28;20324;-70
2022/02/12 02:42:56;;;;;;;;;;;3.60;99.90;;;;;;4192789;28;19908;-70
2022/02/12 02:44:57;;;;;;;;;;;3.60;99.90;;;;;;4193928;28;19908;-70
2022/02/12 02:46:58;;;;;;;;;;;3.60;99.90;;;;;;4191820;28;20259;-70
2022/02/12 02:48:58;;;;;;;;;;;3.60;99.90;;;;;;4190842;28;20889;-70
2022/02/12 02:57:56;;;;;;;;;;;3.40;99.90;;;;;;4193952;28;19908;-70
2022/02/12 02:59:56;;;;;;;;;;;3.40;99.90;;;;;;4188971;28;19959;-70
2022/02/12 03:01:57;;;;;;;;;;;3.30;99.90;;;;;;4192296;28;19920;-70
2022/02/12 03:03:57;;;;;;;;;;;3.30;99.90;;;;;;4190657;28;19919;-70
2022/02/12 03:05:58;;;;;;;;;;;3.30;99.90;;;;;;4191806;28;19917;-70
2022/02/12 03:07:59;;;;;;;;;;;3.20;99.90;;;;;;4193022;28;19962;-70
2022/02/12 03:09:59;;;;;;;;;;;3.10;99.90;;;;;;4194027;28;19966;-70
2022/02/12 03:12:00;;;;;;;;;;;3.10;99.90;;;;;;4191380;28;19909;-70
2022/02/12 03:14:00;;;;;;;;;;;3.10;99.90;;;;;;4190578;28;19920;-70
2022/02/12 03:16:01;;;;;;;;;;;3.00;99.90;;;;;;4191917;28;19947;-70
2022/02/12 03:18:01;;;;;;;;;;;3.00;99.90;;;;;;4193862;28;20441;-70
2022/02/12 03:20:03;;;;;;;;;;;3.00;99.90;;;;;;4188459;28;20284;-70
2022/02/12 03:22:03;;;;;;;;;;;3.00;99.90;;;;;;4195071;28;19994;-70
2022/02/12 03:24:04;;;;;;;;;;;2.90;99.90;;;;;;4193866;28;20354;-70
2022/02/12 03:26:04;;;;;;;;;;;3.00;99.90;;;;;;4193401;28;19924;-70
2022/02/12 03:28:05;;;;;;;;;;;2.90;99.90;;;;;;4195283;28;19912;-70
2022/02/12 03:30:06;;;;;;;;;;;2.90;99.90;;;;;;4194089;28;19912;-70
2022/02/12 03:32:07;;;;;;;;;;;2.80;99.90;;;;;;4193555;28;19908;-70
2022/02/12 03:34:07;;;;;;;;;;;2.90;99.90;;;;;;4191779;28;19920;-70
2022/02/12 03:36:08;;;;;;;;;;;2.80;99.90;;;;;;4194529;28;19909;-70
2022/02/12 03:38:10;;;;;;;;;;;2.80;99.90;;;;;;4195327;28;19980;-71
2022/02/12 03:40:12;;;;;;;;;;;2.70;99.90;;;;;;4194437;28;20020;-70
2022/02/12 03:42:12;;;;;;;;;;;2.80;99.90;;;;;;4195452;28;20429;-70
2022/02/12 03:44:13;;;;;;;;;;;2.70;99.90;;;;;;4195929;28;19915;-70
2022/02/12 03:46:13;;;;;;;;;;;2.70;99.90;;;;;;4193425;28;20058;-70
2022/02/12 03:48:14;;;;;;;;;;;2.70;99.90;;;;;;4192988;28;19915;-70
2022/02/12 03:50:14;;;;;;;;;;;2.70;99.90;;;;;;4192681;28;19909;-70
2022/02/12 03:52:15;;;;;;;;;;;2.70;99.90;;;;;;4189815;28;19916;-70
2022/02/12 03:54:15;;;;;;;;;;;2.70;99.90;;;;;;4176511;28;20392;-70
2022/02/12 03:56:16;;;;;;;;;;;2.70;99.90;;;;;;4177636;28;20001;-70
2022/02/12 03:58:18;;;;;;;;;;;2.70;99.90;;;;;;4176896;28;19917;-70
2022/02/12 04:00:18;;;;;;;;;;;2.70;99.90;;;;;;4177495;28;20316;-70
2022/02/12 04:02:19;;;;;;;;;;;2.60;99.90;;;;;;4177863;28;19963;-70
2022/02/12 04:04:19;;;;;;;;;;;2.60;99.90;;;;;;4177418;28;19909;-70
2022/02/12 04:06:20;;;;;;;;;;;2.50;99.90;;;;;;4177785;28;19924;-70
2022/02/12 04:08:22;;;;;;;;;;;2.50;99.90;;;;;;4178175;28;20258;-70
2022/02/12 04:10:23;;;;;;;;;;;2.40;99.90;;;;;;4193813;28;19916;-70
2022/02/12 04:12:23;;;;;;;;;;;2.50;99.90;;;;;;4193640;28;20617;-70
2022/02/12 04:14:24;;;;;;;;;;;2.40;99.90;;;;;;4187543;28;19924;-70
2022/02/12 04:16:24;;;;;;;;;;;2.30;99.90;;;;;;4188370;28;19963;-70
2022/02/12 04:18:25;;;;;;;;;;;2.30;99.90;;;;;;4173985;28;20380;-70
2022/02/12 04:20:26;;;;;;;;;;;2.20;99.90;;;;;;4177065;28;20004;-70
2022/02/12 04:22:26;;;;;;;;;;;2.20;99.90;;;;;;4176758;28;20286;-70
2022/02/12 04:24:27;;;;;;;;;;;2.20;99.90;;;;;;4177739;28;19947;-70
2022/02/12 04:26:28;;;;;;;;;;;2.20;99.90;;;;;;4176376;28;19912;-70
2022/02/12 04:28:35;;;;;;;;;;;2.20;99.90;;;;;;4176264;28;19909;-70
2022/02/12 04:30:37;;;;;;;;;;;2.20;99.90;;;;;;4192164;28;19952;-70
2022/02/12 04:32:38;;;;;;;;;;;2.20;99.90;;;;;;4185876;28;19916;-70
2022/02/12 04:34:38;;;;;;;;;;;2.20;99.90;;;;;;4176878;28;19923;-71
2022/02/12 04:36:39;;;;;;;;;;;2.20;99.90;;;;;;4179723;28;19917;-70
2022/02/12 04:38:39;;;;;;;;;;;2.20;99.90;;;;;;4186616;28;19909;-70
2022/02/12 04:40:40;;;;;;;;;;;2.20;99.90;;;;;;4192559;28;19951;-70
2022/02/12 04:42:40;;;;;;;;;;;2.30;99.90;;;;;;4193926;28;19948;-70
2022/02/12 04:44:42;;;;;;;;;;;2.30;99.90;;;;;;4182490;28;19931;-71
2022/02/12 04:46:42;;;;;;;;;;;2.30;99.90;;;;;;4174214;28;19917;-70
2022/02/12 04:48:48;;;;;;;;;;;2.30;99.90;;;;;;4173767;28;19958;-70
2022/02/12 04:50:49;;;;;;;;;;;2.30;99.90;;;;;;4201894;28;19920;-70
2022/02/12 04:52:50;;;;;;;;;;;2.30;99.90;;;;;;4192478;28;19981;-70
2022/02/12 04:54:50;;;;;;;;;;;2.30;99.90;;;;;;4190250;28;19920;-70
2022/02/12 04:56:51;;;;;;;;;;;2.20;99.90;;;;;;4180876;28;19909;-70
2022/02/12 04:58:51;;;;;;;;;;;2.30;99.90;;;;;;4173845;28;19952;-70
2022/02/12 05:00:52;;;;;;;;;;;2.30;99.90;;;;;;4203311;28;20009;-70
2022/02/12 05:02:52;;;;;;;;;;;2.30;99.90;;;;;;4176055;28;19966;-70
2022/02/12 05:04:53;;;;;;;;;;;2.20;99.90;;;;;;4177007;28;19971;-70
2022/02/12 05:06:53;;;;;;;;;;;2.20;99.90;;;;;;4177142;28;19948;-70
2022/02/12 05:08:54;;;;;;;;;;;2.30;99.90;;;;;;4177650;28;20354;-71
2022/02/12 05:10:54;;;;;;;;;;;2.30;99.90;;;;;;4158418;28;20323;-71
2022/02/12 05:12:55;;;;;;;;;;;2.30;99.90;;;;;;4177089;28;24725;-71
2022/02/12 05:14:55;;;;;;;;;;;2.30;99.90;;;;;;4191940;28;19917;-71
2022/02/12 05:16:56;;;;;;;;;;;2.30;99.90;;;;;;4192761;28;19924;-71
2022/02/12 05:18:56;;;;;;;;;;;2.40;99.90;;;;;;4191636;28;19908;-71
2022/02/12 05:20:57;;;;;;;;;;;2.40;99.90;;;;;;4193226;28;19915;-71
2022/02/12 05:22:57;;;;;;;;;;;2.40;99.90;;;;;;4192317;28;19917;-71
2022/02/12 05:24:58;;;;;;;;;;;2.40;99.90;;;;;;4193438;28;19909;-71
2022/02/12 05:26:58;;;;;;;;;;;2.40;99.90;;;;;;4192475;28;19908;-71
2022/02/12 05:28:59;;;;;;;;;;;2.40;99.90;;;;;;4192437;28;19916;-71
2022/02/12 05:31:00;;;;;;;;;;;2.40;99.90;;;;;;4192012;28;19916;-71
2022/02/12 05:33:00;;;;;;;;;;;2.40;99.90;;;;;;4187518;28;19909;-71
2022/02/12 05:35:01;;;;;;;;;;;2.40;99.90;;;;;;4175454;28;20381;-71
2022/02/12 05:37:01;;;;;;;;;;;2.30;99.90;;;;;;4174773;28;19909;-71
2022/02/12 05:39:02;;;;;;;;;;;2.30;99.90;;;;;;4175782;28;19928;-71
2022/02/12 05:41:03;;;;;;;;;;;2.30;99.90;;;;;;4174755;28;19912;-71
2022/02/12 05:43:04;;;;;;;;;;;2.30;99.90;;;;;;4175158;28;19909;-71
2022/02/12 05:45:04;;;;;;;;;;;2.30;99.90;;;;;;4187622;28;19908;-71
2022/02/12 05:47:05;;;;;;;;;;;2.30;99.90;;;;;;4192563;28;20292;-71
2022/02/12 05:49:06;;;;;;;;;;;2.30;99.90;;;;;;4185186;28;19964;-71
2022/02/12 05:51:07;;;;;;;;;;;2.30;99.90;;;;;;4175705;28;20004;-71
2022/02/12 05:53:07;;;;;;;;;;;2.30;99.90;;;;;;4177230;28;19924;-71
2022/02/12 05:55:08;;;;;;;;;;;2.30;99.90;;;;;;4177504;28;19923;-71
2022/02/12 05:57:08;;;;;;;;;;;2.30;99.90;;;;;;4190761;28;19908;-70
2022/02/12 05:59:12;;;;;;;;;;;2.40;99.90;;;;;;4193790;28;19912;-71
2022/02/12 06:01:12;;;;;;;;;;;2.40;99.90;;;;;;4175738;28;20285;-71
2022/02/12 06:03:13;;;;;;;;;;;2.40;99.90;;;;;;4177862;28;19983;-71
2022/02/12 06:05:13;;;;;;;;;;;2.40;99.90;;;;;;4175455;28;20281;-71
2022/02/12 06:07:14;;;;;;;;;;;2.40;99.90;;;;;;4176404;28;19913;-71
2022/02/12 06:09:14;;;;;;;;;;;2.40;99.90;;;;;;4176722;28;19912;-71
2022/02/12 06:11:15;;;;;;;;;;;2.40;99.90;;;;;;4172071;28;20389;-71
2022/02/12 06:13:15;;;;;;;;;;;2.40;99.90;;;;;;4186472;27;19920;-70
2022/02/12 06:15:16;;;;;;;;;;;2.40;99.90;;;;;;4184978;28;19916;-71
2022/02/12 06:17:16;;;;;;;;;;;2.40;99.90;;;;;;4179867;28;19982;-71
2022/02/12 06:19:17;;;;;;;;;;;2.40;99.90;;;;;;4175838;28;19912;-71
2022/02/12 06:21:17;;;;;;;;;;;2.40;99.90;;;;;;4174812;28;20370;-71
2022/02/12 06:23:21;;;;;;;;;;;2.40;99.90;;;;;;4173958;28;20337;-71
2022/02/12 06:25:22;;;;;;;;;;;2.40;99.90;;;;;;4189718;28;20018;-71
2022/02/12 06:27:22;;;;;;;;;;;2.40;99.90;;;;;;4193274;28;19924;-71
2022/02/12 06:29:23;;;;;;;;;;;2.40;99.90;;;;;;4183354;28;19909;-71
2022/02/12 06:31:24;;;;;;;;;;;2.30;99.90;;;;;;4175457;28;19955;-71
2022/02/12 06:33:24;;;;;;;;;;;2.30;99.90;;;;;;4175219;28;19999;-71
2022/02/12 06:35:28;;;;;;;;;;;2.30;99.90;;;;;;4189427;28;19962;-71
2022/02/12 06:37:29;;;;;;;;;;;2.30;99.90;;;;;;4175204;28;20032;-71
2022/02/12 06:39:30;;;;;;;;;;;2.20;99.90;;;;;;4177058;28;20433;-71
2022/02/12 06:41:30;;;;;;;;;;;2.20;99.90;;;;;;4174444;28;19909;-71
2022/02/12 06:43:31;;;;;;;;;;;2.20;99.90;;;;;;4175086;28;19959;-71
2022/02/12 06:45:33;;;;;;;;;;;2.10;99.90;;;;;;4173913;28;19913;-71
2022/02/12 06:47:34;;;;;;;;;;;2.10;99.90;;;;;;4173397;28;19909;-71
2022/02/12 06:49:34;;;;;;;;;;;2.10;99.90;;;;;;4175918;28;19968;-71
2022/02/12 06:51:36;;;;;;;;;;;2.10;99.90;;;;;;4198044;28;19908;-71
2022/02/12 06:53:36;;;;;;;;;;;2.10;99.90;;;;;;4192816;28;20035;-71
2022/02/12 06:55:37;;;;;;;;;;;2.10;99.90;;;;;;4185236;28;20297;-71
2022/02/12 06:57:38;;;;;;;;;;;2.10;99.90;;;;;;4181126;28;19963;-71
2022/02/12 06:59:39;;;;;;;;;;;2.10;99.90;;;;;;4180647;28;19916;-71
2022/02/12 07:01:40;;;;;;;;;;;2.10;99.90;;;;;;4183777;28;19917;-71
2022/02/12 07:03:40;;;;;;;;;;;2.00;99.90;;;;;;4179440;28;19954;-71
2022/02/12 07:05:41;;;;;;;;;;;2.10;99.90;;;;;;4179248;28;20039;-71
2022/02/12 07:07:48;;;;;;;;;;;2.00;99.90;;;;;;4177161;28;20301;-71
2022/02/12 07:09:48;;;;;;;;;;;2.00;99.90;;;;;;4178157;28;20468;-71
2022/02/12 07:11:49;;;;;;;;;;;2.10;99.90;;;;;;4178662;28;19917;-71
2022/02/12 07:13:49;;;;;;;;;;;2.00;99.90;;;;;;4176878;28;20297;-71
2022/02/12 07:15:50;;;;;;;;;;;2.00;99.90;;;;;;4176570;28;19998;-71
2022/02/12 07:17:51;;;;;;;;;;;2.00;99.90;;;;;;4194633;28;19943;-71
2022/02/12 07:19:51;;;;;;;;;;;2.10;99.90;;;;;;4192695;28;19912;-71
2022/02/12 07:21:52;;;;;;;;;;;2.10;99.90;;;;;;4198759;28;19917;-71
2022/02/12 07:23:52;;;;;;;;;;;2.10;99.90;;;;;;4190435;28;19916;-71
2022/02/12 07:25:52;;;;;;;;;;;2.10;99.90;;;;;;4161178;28;19921;-72
2022/02/12 07:27:53;;;;;;;;;;;2.10;99.90;;;;;;4177185;28;20064;-71
2022/02/12 07:29:54;;;;;;;;;;;2.10;99.90;;;;;;4179041;28;20349;-71
2022/02/12 07:31:55;;;;;;;;;;;2.10;99.90;;;;;;4193037;28;19920;-71
2022/02/12 07:33:55;;;;;;;;;;;2.20;99.90;;;;;;4193316;28;19916;-71
2022/02/12 07:35:56;;;;;;;;;;;2.20;99.90;;;;;;4193740;28;20397;-71
2022/02/12 07:37:56;;;;;;;;;;;2.20;99.90;;;;;;4194345;28;20305;-71
2022/02/12 07:39:57;;;;;;;;;;;2.20;99.90;;;;;;4192871;28;19916;-70
2022/02/12 07:41:57;;;;;;;;;;;2.30;99.90;;;;;;4191674;28;20384;-70
2022/02/12 07:43:58;;;;;;;;;;;2.30;99.90;;;;;;4190777;28;20259;-70
2022/02/12 07:46:00;;;;;;;;;;;2.30;99.90;;;;;;4177347;28;19932;-70
2022/02/12 07:48:01;;;;;;;;;;;2.40;99.90;;;;;;4178798;28;19909;-70
2022/02/12 07:50:03;;;;;;;;;;;2.30;99.90;;;;;;4181999;28;19908;-70
2022/02/12 07:52:04;;;;;;;;;;;2.30;99.90;;;;;;4184025;28;19909;-71
2022/02/12 07:54:05;;;;;;;;;;;2.40;99.90;;;;;;4189999;28;19982;-71
2022/02/12 07:56:06;;;;;;;;;;;2.40;99.90;;;;;;4188324;28;19948;-71
2022/02/12 07:58:08;;;;;;;;;;;2.50;99.90;;;;;;4181721;28;19917;-71
2022/02/12 08:00:09;;;;;;;;;;;2.50;99.90;;;;;;4177237;28;19913;-71
2022/02/12 08:02:09;;;;;;;;;;;2.60;99.90;;;;;;4181239;28;19912;-71
2022/02/12 08:04:10;;;;;;;;;;;2.70;99.90;;;;;;4192637;27;19908;-71
2022/02/12 08:07:27;;;;;;;;;;;2.80;99.90;;;;;;4189618;28;20365;-71
2022/02/12 08:08:31;;;;;;;;;;;2.80;99.90;;;;;;4182782;28;19913;-71
2022/02/12 08:12:50;;;;;;;;;;;2.90;99.90;;;;;;4186411;28;19958;-71
2022/02/12 08:14:52;;;;;;;;;;;3.00;99.90;;;;;;4190129;28;20377;-71
2022/02/12 08:16:53;;;;;;;;;;;3.00;99.90;;;;;;4194385;28;19965;-71
2022/02/12 08:18:53;;;;;;;;;;;3.10;99.90;;;;;;4190910;28;19959;-71
2022/02/12 08:20:54;;;;;;;;;;;3.20;99.90;;;;;;4191177;28;20026;-71
2022/02/12 08:22:54;;;;;;;;;;;3.30;99.90;;;;;;4190280;28;20389;-71
2022/02/12 08:24:55;;;;;;;;;;;3.30;99.90;;;;;;4187166;28;19993;-71
2022/02/12 08:26:55;;;;;;;;;;;3.50;99.90;;;;;;4177907;28;20370;-71
2022/02/12 08:28:55;;;;;;;;;;;3.50;99.90;;;;;;4189715;28;20273;-71
2022/02/12 08:30:56;;;;;;;;;;;3.70;99.90;;;;;;4190199;28;19912;-71
2022/02/12 08:32:56;;;;;;;;;;;3.70;99.90;;;;;;4187420;28;19996;-71
2022/02/12 08:34:57;;;;;;;;;;;3.80;99.90;;;;;;4190988;28;19920;-71
2022/02/12 08:36:58;;;;;;;;;;;3.90;99.90;;;;;;4191390;28;21139;-71
2022/02/12 08:38:58;;;;;;;;;;;4.00;99.90;;;;;;4193353;28;19999;-71
2022/02/12 08:40:59;;;;;;;;;;;4.10;99.90;;;;;;4178265;28;19909;-70
2022/02/12 08:42:59;;;;;;;;;;;4.10;99.90;;;;;;4197207;28;20365;-70
2022/02/12 08:44:59;;;;;;;;;;;4.20;99.90;;;;;;4189913;28;19915;-70
2022/02/12 08:47:00;;;;;;;;;;;4.20;99.90;;;;;;4174473;28;19913;-70
2022/02/12 08:49:01;;;;;;;;;;;4.20;99.90;;;;;;4174083;28;19931;-70
2022/02/12 08:51:03;;;;;;;;;;;4.30;99.90;;;;;;4191993;28;20362;-70
2022/02/12 08:53:04;;;;;;;;;;;4.30;99.90;;;;;;4183746;28;19916;-70
2022/02/12 08:55:05;;;;;;;;;;;4.20;99.90;;;;;;4188266;28;19923;-70
2022/02/12 08:57:05;;;;;;;;;;;4.10;99.90;;;;;;4192525;28;19924;-70
2022/02/12 08:59:06;;;;;;;;;;;4.20;99.90;;;;;;4194241;28;19944;-70
2022/02/12 09:01:07;;;;;;;;;;;4.30;99.90;;;;;;4192302;28;20281;-70
2022/02/12 09:03:08;;;;;;;;;;;4.40;99.90;;;;;;4193140;28;19917;-70
2022/02/12 09:05:09;;;;;;;;;;;4.50;99.90;;;;;;4192503;28;19944;-70
2022/02/12 09:07:10;;;;;;;;;;;4.50;99.90;;;;;;4190038;28;20346;-70
2022/02/12 09:09:10;;;;;;;;;;;4.50;99.90;;;;;;4193288;28;19935;-70
2022/02/12 09:11:11;;;;;;;;;;;4.60;99.90;;;;;;4193994;28;19917;-70
2022/02/12 09:13:11;;;;;;;;;;;4.50;99.90;;;;;;4193184;28;20298;-70
2022/02/12 09:15:11;;;;;;;;;;;4.50;99.90;;;;;;4190986;28;20281;-70
2022/02/12 09:17:12;;;;;;;;;;;4.60;99.90;;;;;;4193302;28;19908;-70
2022/02/12 09:19:12;;;;;;;;;;;4.60;99.90;;;;;;4191123;28;19916;-70
2022/02/12 09:21:13;;;;;;;;;;;4.60;99.90;;;;;;4187298;28;20297;-70
2022/02/12 09:23:14;;;;;;;;;;;4.60;99.90;;;;;;4174568;28;19936;-70
2022/02/12 09:25:14;;;;;;;;;;;4.60;99.90;;;;;;4179159;28;19958;-70
2022/02/12 09:27:16;;;;;;;;;;;4.60;99.90;;;;;;4162469;28;19944;-70
2022/02/12 09:29:17;;;;;;;;;;;4.60;99.90;;;;;;4193730;28;19912;-70
2022/02/12 09:31:19;;;;;;;;;;;4.50;99.90;;;;;;4191432;28;19966;-70
2022/02/12 09:33:19;;;;;;;;;;;4.60;99.90;;;;;;4191363;28;19909;-71
2022/02/12 09:35:20;;;;;;;;;;;4.60;99.90;;;;;;4189045;28;19995;-70
2022/02/12 09:37:20;;;;;;;;;;;4.60;99.90;;;;;;4186267;28;19909;-70
2022/02/12 09:39:21;;;;;;;;;;;4.60;99.90;;;;;;4175307;28;19958;-70
2022/02/12 09:41:23;;;;;;;;;;;4.60;99.90;;;;;;4174563;28;19932;-70
2022/02/12 09:43:25;;;;;;;;;;;4.60;99.90;;;;;;4176717;28;19918;-70
2022/02/12 09:45:26;;;;;;;;;;;4.60;99.90;;;;;;4188780;28;20963;-70
2022/02/12 09:47:33;;;;;;;;;;;4.50;99.90;;;;;;4193834;28;20254;-70
2022/02/12 09:49:34;;;;;;;;;;;4.60;99.90;;;;;;4192534;28;20344;-70
2022/02/12 09:51:37;;;;;;;;;;;4.50;99.90;;;;;;4193341;28;19948;-70
2022/02/12 09:53:37;;;;;;;;;;;4.30;99.90;;;;;;4189389;28;19916;-70
2022/02/12 09:55:38;;;;;;;;;;;4.40;99.90;;;;;;4181346;28;19915;-70
2022/02/12 09:57:39;;;;;;;;;;;4.50;99.90;;;;;;4191068;28;19934;-70
2022/02/12 09:59:40;;;;;;;;;;;4.50;99.90;;;;;;4203415;28;19947;-70
2022/02/12 10:01:40;;;;;;;;;;;4.60;99.90;;;;;;4185080;28;19931;-70
2022/02/12 10:03:41;;;;;;;;;;;4.70;99.90;;;;;;4177280;28;20122;-70
2022/02/12 10:05:53;;;;;;;;;;;4.80;99.90;;;;;;4175708;28;19919;-70
2022/02/12 10:08:02;;;;;;;;;;;4.90;99.90;;;;;;4174849;28;19913;-70
2022/02/12 10:10:16;;;;;;;;;;;5.00;99.90;;;;;;4172656;28;19963;-70
2022/02/12 10:12:23;;;;;;;;;;;5.00;99.90;;;;;;4178037;28;20021;-70
2022/02/12 10:14:25;;;;;;;;;;;5.10;99.90;;;;;;4176918;28;19967;-70
2022/02/12 10:16:25;;;;;;;;;;;5.20;99.90;;;;;;4177352;28;19916;-70
2022/02/12 10:18:26;;;;;;;;;;;5.30;99.90;;;;;;4175397;28;19917;-71
2022/02/12 10:20:32;;;;;;;;;;;5.40;99.90;;;;;;4173841;28;19924;-70
2022/02/12 10:22:33;;;;;;;;;;;5.50;99.90;;;;;;4181691;28;19908;-70
2022/02/12 10:24:58;;;;;;;;;;;5.50;99.90;;;;;;4182223;28;19959;-70
2022/02/12 10:27:02;;;;;;;;;;;5.60;99.90;;;;;;4174524;28;19913;-70
2022/02/12 10:29:03;;;;;;;;;;;5.70;99.90;;;;;;4174272;28;19921;-71
2022/02/12 10:31:04;;;;;;;;;;;5.80;99.90;;;;;;4189284;28;19909;-71
2022/02/12 10:33:06;;;;;;;;;;;5.90;99.90;;;;;;4176701;28;19913;-71
2022/02/12 10:35:10;;;;;;;;;;;5.90;99.90;;;;;;4178853;28;19919;-71
2022/02/12 10:37:18;;;;;;;;;;;6.10;99.90;;;;;;4191058;28;19962;-70
2022/02/12 10:39:19;;;;;;;;;;;6.10;99.90;;;;;;4180009;28;19959;-71
2022/02/12 10:41:20;;;;;;;;;;;6.20;99.90;;;;;;4179788;28;19908;-71
2022/02/12 10:43:23;;;;;;;;;;;6.20;99.90;;;;;;4187745;28;19916;-71
2022/02/12 10:45:26;;;;;;;;;;;6.20;99.90;;;;;;4194422;28;19919;-71
2022/02/12 10:47:26;;;;;;;;;;;6.20;99.90;;;;;;4180806;28;19923;-71
2022/02/12 10:49:27;;;;;;;;;;;6.20;99.90;;;;;;4178992;28;19960;-71
2022/02/12 10:51:29;;;;;;;;;;;6.20;99.90;;;;;;4178814;28;20003;-71
2022/02/12 10:53:30;;;;;;;;;;;6.20;99.90;;;;;;4194307;28;19928;-71
2022/02/12 10:55:32;;;;;;;;;;;6.20;99.90;;;;;;4190208;28;20042;-71
2022/02/12 10:57:38;;;;;;;;;;;6.30;99.90;;;;;;4188817;28;19928;-71
2022/02/12 10:59:43;;;;;;;;;;;6.30;99.90;;;;;;4176203;28;19992;-71
2022/02/12 11:01:44;;;;;;;;;;;6.40;99.90;;;;;;4175638;28;19909;-70
2022/02/12 11:03:45;;;;;;;;;;;6.50;99.90;;;;;;4182042;28;20012;-71
2022/02/12 11:05:52;;;;;;;;;;;6.50;99.90;;;;;;4176912;28;19913;-70
2022/02/12 11:07:54;;;;;;;;;;;6.60;99.90;;;;;;4179417;28;19909;-71
2022/02/12 11:09:54;;;;;;;;;;;6.60;99.90;;;;;;4192228;28;19916;-71
2022/02/12 11:11:56;;;;;;;;;;;6.60;99.90;;;;;;4185794;28;20389;-71
2022/02/12 11:13:58;;;;;;;;;;;6.70;99.90;;;;;;4178800;28;19917;-71
2022/02/12 11:15:59;;;;;;;;;;;6.70;99.90;;;;;;4177653;28;19913;-71
2022/02/12 11:18:00;;;;;;;;;;;6.80;99.90;;;;;;4176863;28;20464;-71
2022/02/12 11:20:02;;;;;;;;;;;6.80;99.90;;;;;;4178932;28;19917;-71
2022/02/12 11:22:03;;;;;;;;;;;6.90;99.90;;;;;;4178490;28;19920;-71
2022/02/12 11:24:04;;;;;;;;;;;6.90;99.90;;;;;;4195340;28;19920;-71
2022/02/12 11:26:05;;;;;;;;;;;6.90;99.90;;;;;;4181375;28;19923;-71
2022/02/12 11:28:09;;;;;;;;;;;7.00;99.90;;;;;;4176448;28;19908;-71
2022/02/12 11:30:12;;;;;;;;;;;7.10;99.90;;;;;;4214807;28;19976;-71
2022/02/12 11:32:14;;;;;;;;;;;7.10;99.90;;;;;;4192382;28;20357;-71
2022/02/12 11:34:17;;;;;;;;;;;7.00;99.90;;;;;;4204597;28;19908;-71
2022/02/12 11:36:19;;;;;;;;;;;7.10;99.90;;;;;;4182654;28;20366;-71
2022/02/12 11:38:35;;;;;;;;;;;7.10;99.90;;;;;;4184653;28;19995;-71
2022/02/12 11:40:36;;;;;;;;;;;7.20;99.90;;;;;;4207867;27;19908;-71
2022/02/12 11:42:51;;;;;;;;;;;7.20;99.90;;;;;;4176162;28;19943;-71
2022/02/12 11:44:52;;;;;;;;;;;7.20;99.90;;;;;;4173953;28;19913;-71
2022/02/12 11:46:52;;;;;;;;;;;7.20;99.90;;;;;;4192403;28;19913;-71
2022/02/12 11:49:13;;;;;;;;;;;7.30;99.90;;;;;;4193611;28;19916;-71
2022/02/12 11:51:13;;;;;;;;;;;7.30;99.90;;;;;;4189777;28;19954;-71
2022/02/12 11:53:30;;;;;;;;;;;7.30;99.90;;;;;;4183051;28;20452;-71
2022/02/12 11:55:32;;;;;;;;;;;7.40;99.90;;;;;;4179566;28;20917;-71
2022/02/12 11:57:32;;;;;;;;;;;7.40;99.90;;;;;;4177759;28;19924;-71
2022/02/12 11:59:33;;;;;;;;;;;7.40;99.90;;;;;;4191538;28;19999;-71
2022/02/12 12:01:38;;;;;;;;;;;7.50;99.90;;;;;;4177963;28;19971;-71
2022/02/12 12:03:57;;;;;;;;;;;7.50;99.90;;;;;;4188332;28;20026;-71
2022/02/12 12:06:16;;;;;;;;;;;7.50;99.90;;;;;;4176661;28;19922;-71
2022/02/12 12:08:17;;;;;;;;;;;7.50;99.90;;;;;;4177236;28;19920;-71